sensor_id;sensor_type;location;lat;lon;timestamp;P1;durP1;ratioP1;P2;durP2;ratioP2
55031;SDS011;40928;51.076;7.950;2023-08-06T00:00:28;5.15;;;2.10;;
55031;SDS011;40928;51.076;7.950;2023-08-06T00:02:56;4.00;;;1.90;;
55031;SDS011;40928;51.076;7.950;2023-08-06T00:05:22;3.53;;;1.55;;
55031;SDS011;40928;51.076;7.950;2023-08-06T00:07:48;2.42;;;1.60;;
55031;SDS011;40928;51.076;7.950;2023-08-06T00:10:15;3.28;;;1.83;;
55031;SDS011;40928;51.076;7.950;2023-08-06T00:12:41;2.83;;;1.70;;
55031;SDS011;40928;51.076;7.950;2023-08-06T00:15:10;2.97;;;1.52;;
55031;SDS011;40928;51.076;7.950;2023-08-06T00:17:40;2.53;;;1.58;;
55031;SDS011;40928;51.076;7.950;2023-08-06T00:20:06;6.45;;;2.03;;
55031;SDS011;40928;51.076;7.950;2023-08-06T00:22:32;3.28;;;1.98;;
55031;SDS011;40928;51.076;7.950;2023-08-06T00:25:05;3.85;;;2.30;;
55031;SDS011;40928;51.076;7.950;2023-08-06T00:27:31;2.30;;;1.40;;
55031;SDS011;40928;51.076;7.950;2023-08-06T00:29:57;2.53;;;1.67;;
55031;SDS011;40928;51.076;7.950;2023-08-06T00:32:23;3.63;;;1.52;;
55031;SDS011;40928;51.076;7.950;2023-08-06T00:34:49;2.30;;;1.88;;
55031;SDS011;40928;51.076;7.950;2023-08-06T00:37:18;2.63;;;1.58;;
55031;SDS011;40928;51.076;7.950;2023-08-06T00:39:43;2.40;;;1.65;;
55031;SDS011;40928;51.076;7.950;2023-08-06T00:42:09;2.53;;;1.85;;
55031;SDS011;40928;51.076;7.950;2023-08-06T00:44:36;2.92;;;2.05;;
55031;SDS011;40928;51.076;7.950;2023-08-06T00:47:03;2.78;;;1.73;;
55031;SDS011;40928;51.076;7.950;2023-08-06T00:49:29;4.95;;;1.70;;
55031;SDS011;40928;51.076;7.950;2023-08-06T00:51:56;3.70;;;1.70;;
55031;SDS011;40928;51.076;7.950;2023-08-06T00:54:25;4.57;;;1.60;;
55031;SDS011;40928;51.076;7.950;2023-08-06T00:56:56;2.13;;;1.70;;
55031;SDS011;40928;51.076;7.950;2023-08-06T00:59:23;3.35;;;1.98;;
55031;SDS011;40928;51.076;7.950;2023-08-06T01:01:50;1.92;;;1.70;;
55031;SDS011;40928;51.076;7.950;2023-08-06T01:04:19;2.95;;;1.40;;
55031;SDS011;40928;51.076;7.950;2023-08-06T01:15:22;4.50;;;2.03;;
55031;SDS011;40928;51.076;7.950;2023-08-06T01:17:55;5.25;;;1.90;;
55031;SDS011;40928;51.076;7.950;2023-08-06T01:20:27;2.35;;;1.58;;
55031;SDS011;40928;51.076;7.950;2023-08-06T01:22:54;3.40;;;2.13;;
55031;SDS011;40928;51.076;7.950;2023-08-06T01:25:25;5.35;;;2.03;;
55031;SDS011;40928;51.076;7.950;2023-08-06T01:28:04;1.90;;;1.63;;
55031;SDS011;40928;51.076;7.950;2023-08-06T01:30:37;3.08;;;1.70;;
55031;SDS011;40928;51.076;7.950;2023-08-06T01:33:08;2.33;;;1.60;;
55031;SDS011;40928;51.076;7.950;2023-08-06T01:35:42;4.13;;;1.85;;
55031;SDS011;40928;51.076;7.950;2023-08-06T01:38:13;5.68;;;3.08;;
55031;SDS011;40928;51.076;7.950;2023-08-06T01:40:39;3.85;;;1.80;;
55031;SDS011;40928;51.076;7.950;2023-08-06T01:43:06;4.32;;;2.00;;
55031;SDS011;40928;51.076;7.950;2023-08-06T01:45:32;3.53;;;2.22;;
55031;SDS011;40928;51.076;7.950;2023-08-06T01:48:01;2.05;;;1.70;;
55031;SDS011;40928;51.076;7.950;2023-08-06T01:50:27;3.22;;;2.45;;
55031;SDS011;40928;51.076;7.950;2023-08-06T01:53:05;3.40;;;2.30;;
55031;SDS011;40928;51.076;7.950;2023-08-06T01:55:31;2.33;;;1.80;;
55031;SDS011;40928;51.076;7.950;2023-08-06T01:57:58;3.67;;;2.33;;
55031;SDS011;40928;51.076;7.950;2023-08-06T02:00:25;3.15;;;2.40;;
55031;SDS011;40928;51.076;7.950;2023-08-06T02:02:52;4.45;;;2.60;;
55031;SDS011;40928;51.076;7.950;2023-08-06T02:05:18;3.85;;;2.28;;
55031;SDS011;40928;51.076;7.950;2023-08-06T02:07:45;3.22;;;1.98;;
55031;SDS011;40928;51.076;7.950;2023-08-06T02:10:10;2.70;;;2.00;;
55031;SDS011;40928;51.076;7.950;2023-08-06T02:12:36;2.97;;;2.08;;
55031;SDS011;40928;51.076;7.950;2023-08-06T02:15:14;3.00;;;2.42;;
55031;SDS011;40928;51.076;7.950;2023-08-06T02:17:40;3.35;;;2.20;;
55031;SDS011;40928;51.076;7.950;2023-08-06T02:20:06;2.08;;;1.83;;
55031;SDS011;40928;51.076;7.950;2023-08-06T02:22:35;6.32;;;2.45;;
55031;SDS011;40928;51.076;7.950;2023-08-06T02:25:00;4.32;;;2.58;;
55031;SDS011;40928;51.076;7.950;2023-08-06T02:27:26;2.88;;;2.17;;
55031;SDS011;40928;51.076;7.950;2023-08-06T02:29:51;3.70;;;2.40;;
55031;SDS011;40928;51.076;7.950;2023-08-06T02:32:17;4.97;;;2.00;;
55031;SDS011;40928;51.076;7.950;2023-08-06T02:34:42;7.72;;;2.83;;
55031;SDS011;40928;51.076;7.950;2023-08-06T02:37:08;5.43;;;2.40;;
55031;SDS011;40928;51.076;7.950;2023-08-06T02:39:33;3.47;;;2.17;;
55031;SDS011;40928;51.076;7.950;2023-08-06T02:42:04;3.70;;;2.13;;
55031;SDS011;40928;51.076;7.950;2023-08-06T02:44:30;2.20;;;1.77;;
55031;SDS011;40928;51.076;7.950;2023-08-06T02:46:56;6.13;;;2.58;;
55031;SDS011;40928;51.076;7.950;2023-08-06T02:49:21;3.13;;;2.00;;
55031;SDS011;40928;51.076;7.950;2023-08-06T02:51:47;4.30;;;2.67;;
55031;SDS011;40928;51.076;7.950;2023-08-06T02:54:12;5.18;;;2.45;;
55031;SDS011;40928;51.076;7.950;2023-08-06T02:56:38;4.97;;;2.25;;
55031;SDS011;40928;51.076;7.950;2023-08-06T02:59:13;2.67;;;2.00;;
55031;SDS011;40928;51.076;7.950;2023-08-06T03:01:57;4.47;;;2.63;;
55031;SDS011;40928;51.076;7.950;2023-08-06T03:04:30;2.80;;;2.22;;
55031;SDS011;40928;51.076;7.950;2023-08-06T03:06:55;4.22;;;2.67;;
55031;SDS011;40928;51.076;7.950;2023-08-06T03:09:25;3.30;;;2.47;;
55031;SDS011;40928;51.076;7.950;2023-08-06T03:11:51;5.03;;;2.53;;
55031;SDS011;40928;51.076;7.950;2023-08-06T03:14:18;5.70;;;3.20;;
55031;SDS011;40928;51.076;7.950;2023-08-06T03:16:44;6.50;;;2.60;;
55031;SDS011;40928;51.076;7.950;2023-08-06T03:19:13;4.90;;;2.42;;
55031;SDS011;40928;51.076;7.950;2023-08-06T03:21:38;3.72;;;2.90;;
55031;SDS011;40928;51.076;7.950;2023-08-06T03:24:05;4.53;;;2.10;;
55031;SDS011;40928;51.076;7.950;2023-08-06T03:26:33;2.88;;;2.17;;
55031;SDS011;40928;51.076;7.950;2023-08-06T03:28:58;3.40;;;2.20;;
55031;SDS011;40928;51.076;7.950;2023-08-06T03:31:24;2.65;;;2.20;;
55031;SDS011;40928;51.076;7.950;2023-08-06T03:33:51;3.75;;;2.30;;
55031;SDS011;40928;51.076;7.950;2023-08-06T03:36:22;5.63;;;2.40;;
55031;SDS011;40928;51.076;7.950;2023-08-06T03:38:49;7.30;;;2.63;;
55031;SDS011;40928;51.076;7.950;2023-08-06T03:41:14;4.80;;;2.78;;
55031;SDS011;40928;51.076;7.950;2023-08-06T03:43:40;5.82;;;2.80;;
55031;SDS011;40928;51.076;7.950;2023-08-06T03:46:11;3.78;;;2.22;;
55031;SDS011;40928;51.076;7.950;2023-08-06T03:48:36;8.52;;;2.67;;
55031;SDS011;40928;51.076;7.950;2023-08-06T03:51:02;4.43;;;2.55;;
55031;SDS011;40928;51.076;7.950;2023-08-06T03:53:28;6.72;;;3.55;;
55031;SDS011;40928;51.076;7.950;2023-08-06T03:55:53;4.55;;;2.28;;
55031;SDS011;40928;51.076;7.950;2023-08-06T03:58:21;4.45;;;3.17;;
55031;SDS011;40928;51.076;7.950;2023-08-06T04:00:46;5.07;;;2.35;;
55031;SDS011;40928;51.076;7.950;2023-08-06T04:03:12;3.85;;;2.42;;
55031;SDS011;40928;51.076;7.950;2023-08-06T04:05:39;4.85;;;2.47;;
55031;SDS011;40928;51.076;7.950;2023-08-06T04:08:04;4.15;;;2.90;;
55031;SDS011;40928;51.076;7.950;2023-08-06T04:10:33;4.28;;;2.30;;
55031;SDS011;40928;51.076;7.950;2023-08-06T04:12:59;6.63;;;2.17;;
55031;SDS011;40928;51.076;7.950;2023-08-06T04:15:25;5.13;;;2.78;;
55031;SDS011;40928;51.076;7.950;2023-08-06T04:17:50;3.15;;;2.28;;
55031;SDS011;40928;51.076;7.950;2023-08-06T04:20:16;4.68;;;2.70;;
55031;SDS011;40928;51.076;7.950;2023-08-06T04:22:43;4.32;;;2.38;;
55031;SDS011;40928;51.076;7.950;2023-08-06T04:25:09;5.82;;;2.38;;
55031;SDS011;40928;51.076;7.950;2023-08-06T04:27:34;2.88;;;2.53;;
55031;SDS011;40928;51.076;7.950;2023-08-06T04:30:02;5.88;;;2.72;;
55031;SDS011;40928;51.076;7.950;2023-08-06T04:32:28;3.80;;;1.85;;
55031;SDS011;40928;51.076;7.950;2023-08-06T04:34:56;3.88;;;2.47;;
55031;SDS011;40928;51.076;7.950;2023-08-06T04:37:22;2.95;;;2.50;;
55031;SDS011;40928;51.076;7.950;2023-08-06T04:39:48;4.55;;;2.60;;
55031;SDS011;40928;51.076;7.950;2023-08-06T04:42:14;5.85;;;2.78;;
55031;SDS011;40928;51.076;7.950;2023-08-06T04:44:40;4.55;;;2.55;;
55031;SDS011;40928;51.076;7.950;2023-08-06T04:47:06;8.63;;;2.53;;
55031;SDS011;40928;51.076;7.950;2023-08-06T04:49:31;7.38;;;2.75;;
55031;SDS011;40928;51.076;7.950;2023-08-06T04:51:57;7.05;;;2.90;;
55031;SDS011;40928;51.076;7.950;2023-08-06T04:54:22;3.92;;;1.95;;
55031;SDS011;40928;51.076;7.950;2023-08-06T04:56:48;4.63;;;2.08;;
55031;SDS011;40928;51.076;7.950;2023-08-06T04:59:13;3.55;;;2.25;;
55031;SDS011;40928;51.076;7.950;2023-08-06T05:01:39;3.83;;;2.22;;
55031;SDS011;40928;51.076;7.950;2023-08-06T05:04:04;6.75;;;3.17;;
55031;SDS011;40928;51.076;7.950;2023-08-06T05:06:30;3.45;;;2.13;;
55031;SDS011;40928;51.076;7.950;2023-08-06T05:08:55;4.53;;;2.67;;
55031;SDS011;40928;51.076;7.950;2023-08-06T05:11:21;4.00;;;2.08;;
55031;SDS011;40928;51.076;7.950;2023-08-06T05:13:46;6.90;;;2.42;;
55031;SDS011;40928;51.076;7.950;2023-08-06T05:16:12;2.75;;;1.85;;
55031;SDS011;40928;51.076;7.950;2023-08-06T05:18:37;4.00;;;1.90;;
55031;SDS011;40928;51.076;7.950;2023-08-06T05:21:03;3.80;;;2.25;;
55031;SDS011;40928;51.076;7.950;2023-08-06T05:23:29;4.45;;;2.42;;
55031;SDS011;40928;51.076;7.950;2023-08-06T05:25:54;3.92;;;2.00;;
55031;SDS011;40928;51.076;7.950;2023-08-06T05:28:20;4.30;;;2.28;;
55031;SDS011;40928;51.076;7.950;2023-08-06T05:30:45;3.10;;;1.83;;
55031;SDS011;40928;51.076;7.950;2023-08-06T05:33:11;3.85;;;2.17;;
55031;SDS011;40928;51.076;7.950;2023-08-06T05:35:36;6.40;;;2.13;;
55031;SDS011;40928;51.076;7.950;2023-08-06T05:38:02;4.68;;;2.10;;
55031;SDS011;40928;51.076;7.950;2023-08-06T05:40:27;4.30;;;2.15;;
55031;SDS011;40928;51.076;7.950;2023-08-06T05:42:53;6.55;;;2.08;;
55031;SDS011;40928;51.076;7.950;2023-08-06T05:45:19;5.10;;;1.73;;
55031;SDS011;40928;51.076;7.950;2023-08-06T05:47:45;6.15;;;1.90;;
55031;SDS011;40928;51.076;7.950;2023-08-06T05:50:10;5.07;;;1.67;;
55031;SDS011;40928;51.076;7.950;2023-08-06T05:52:36;4.47;;;1.48;;
55031;SDS011;40928;51.076;7.950;2023-08-06T05:55:02;2.33;;;1.20;;
55031;SDS011;40928;51.076;7.950;2023-08-06T05:57:28;5.28;;;1.63;;
55031;SDS011;40928;51.076;7.950;2023-08-06T05:59:54;6.00;;;1.48;;
55031;SDS011;40928;51.076;7.950;2023-08-06T06:02:19;7.47;;;1.65;;
55031;SDS011;40928;51.076;7.950;2023-08-06T06:04:45;3.28;;;1.40;;
55031;SDS011;40928;51.076;7.950;2023-08-06T06:07:10;5.03;;;1.50;;
55031;SDS011;40928;51.076;7.950;2023-08-06T06:09:36;8.63;;;1.70;;
55031;SDS011;40928;51.076;7.950;2023-08-06T06:12:02;3.30;;;1.30;;
55031;SDS011;40928;51.076;7.950;2023-08-06T06:14:28;5.05;;;1.90;;
55031;SDS011;40928;51.076;7.950;2023-08-06T06:16:53;2.00;;;0.95;;
55031;SDS011;40928;51.076;7.950;2023-08-06T06:19:18;4.25;;;1.63;;
55031;SDS011;40928;51.076;7.950;2023-08-06T06:21:44;4.13;;;1.35;;
55031;SDS011;40928;51.076;7.950;2023-08-06T06:24:09;7.30;;;1.40;;
55031;SDS011;40928;51.076;7.950;2023-08-06T06:26:35;5.22;;;1.58;;
55031;SDS011;40928;51.076;7.950;2023-08-06T06:29:01;6.68;;;1.50;;
55031;SDS011;40928;51.076;7.950;2023-08-06T06:31:26;3.85;;;1.10;;
55031;SDS011;40928;51.076;7.950;2023-08-06T06:33:52;4.78;;;1.83;;
55031;SDS011;40928;51.076;7.950;2023-08-06T06:36:27;1.90;;;1.30;;
55031;SDS011;40928;51.076;7.950;2023-08-06T06:38:53;3.78;;;1.63;;
55031;SDS011;40928;51.076;7.950;2023-08-06T06:41:25;3.83;;;1.50;;
55031;SDS011;40928;51.076;7.950;2023-08-06T06:43:51;5.57;;;1.10;;
55031;SDS011;40928;51.076;7.950;2023-08-06T06:46:17;2.85;;;1.05;;
55031;SDS011;40928;51.076;7.950;2023-08-06T06:48:42;2.08;;;1.17;;
55031;SDS011;40928;51.076;7.950;2023-08-06T06:51:08;6.10;;;1.60;;
55031;SDS011;40928;51.076;7.950;2023-08-06T06:53:33;2.80;;;1.33;;
55031;SDS011;40928;51.076;7.950;2023-08-06T06:56:02;4.38;;;1.17;;
55031;SDS011;40928;51.076;7.950;2023-08-06T06:58:29;2.00;;;0.95;;
55031;SDS011;40928;51.076;7.950;2023-08-06T07:00:58;2.05;;;1.00;;
55031;SDS011;40928;51.076;7.950;2023-08-06T07:03:23;2.85;;;0.68;;
55031;SDS011;40928;51.076;7.950;2023-08-06T07:05:49;1.58;;;0.70;;
55031;SDS011;40928;51.076;7.950;2023-08-06T07:08:15;1.73;;;0.73;;
55031;SDS011;40928;51.076;7.950;2023-08-06T07:10:41;4.90;;;0.52;;
55031;SDS011;40928;51.076;7.950;2023-08-06T07:13:08;1.58;;;0.50;;
55031;SDS011;40928;51.076;7.950;2023-08-06T07:15:40;2.28;;;0.50;;
55031;SDS011;40928;51.076;7.950;2023-08-06T07:18:06;0.85;;;0.50;;
55031;SDS011;40928;51.076;7.950;2023-08-06T07:20:31;0.52;;;0.40;;
55031;SDS011;40928;51.076;7.950;2023-08-06T07:22:59;0.82;;;0.30;;
55031;SDS011;40928;51.076;7.950;2023-08-06T07:25:24;0.80;;;0.30;;
55031;SDS011;40928;51.076;7.950;2023-08-06T07:27:50;0.50;;;0.30;;
55031;SDS011;40928;51.076;7.950;2023-08-06T07:30:15;0.40;;;0.20;;
55031;SDS011;40928;51.076;7.950;2023-08-06T07:32:41;1.75;;;0.35;;
55031;SDS011;40928;51.076;7.950;2023-08-06T07:35:06;5.38;;;0.50;;
55031;SDS011;40928;51.076;7.950;2023-08-06T07:37:34;0.45;;;0.40;;
55031;SDS011;40928;51.076;7.950;2023-08-06T07:40:00;0.57;;;0.20;;
55031;SDS011;40928;51.076;7.950;2023-08-06T07:42:25;1.02;;;0.20;;
55031;SDS011;40928;51.076;7.950;2023-08-06T07:44:54;0.32;;;0.25;;
55031;SDS011;40928;51.076;7.950;2023-08-06T07:47:21;0.57;;;0.30;;
55031;SDS011;40928;51.076;7.950;2023-08-06T07:49:47;0.25;;;0.10;;
55031;SDS011;40928;51.076;7.950;2023-08-06T07:52:12;0.30;;;0.15;;
55031;SDS011;40928;51.076;7.950;2023-08-06T07:54:38;0.43;;;0.17;;
55031;SDS011;40928;51.076;7.950;2023-08-06T07:57:03;0.20;;;0.20;;
55031;SDS011;40928;51.076;7.950;2023-08-06T07:59:29;0.38;;;0.20;;
55031;SDS011;40928;51.076;7.950;2023-08-06T08:01:55;0.25;;;0.20;;
55031;SDS011;40928;51.076;7.950;2023-08-06T08:04:21;1.10;;;0.20;;
55031;SDS011;40928;51.076;7.950;2023-08-06T08:06:47;0.47;;;0.25;;
55031;SDS011;40928;51.076;7.950;2023-08-06T08:09:12;0.98;;;0.20;;
55031;SDS011;40928;51.076;7.950;2023-08-06T08:11:39;0.47;;;0.20;;
55031;SDS011;40928;51.076;7.950;2023-08-06T08:14:05;0.22;;;0.15;;
55031;SDS011;40928;51.076;7.950;2023-08-06T08:16:30;0.40;;;0.20;;
55031;SDS011;40928;51.076;7.950;2023-08-06T08:18:56;0.20;;;0.10;;
55031;SDS011;40928;51.076;7.950;2023-08-06T08:21:22;1.88;;;0.20;;
55031;SDS011;40928;51.076;7.950;2023-08-06T08:23:49;0.38;;;0.20;;
55031;SDS011;40928;51.076;7.950;2023-08-06T08:26:15;0.43;;;0.10;;
55031;SDS011;40928;51.076;7.950;2023-08-06T08:28:41;0.30;;;0.10;;
55031;SDS011;40928;51.076;7.950;2023-08-06T08:31:10;0.22;;;0.10;;
55031;SDS011;40928;51.076;7.950;2023-08-06T08:33:38;0.20;;;0.15;;
55031;SDS011;40928;51.076;7.950;2023-08-06T08:36:04;0.28;;;0.13;;
55031;SDS011;40928;51.076;7.950;2023-08-06T08:38:32;0.38;;;0.15;;
55031;SDS011;40928;51.076;7.950;2023-08-06T08:41:00;0.20;;;0.20;;
55031;SDS011;40928;51.076;7.950;2023-08-06T08:43:26;0.80;;;0.25;;
55031;SDS011;40928;51.076;7.950;2023-08-06T08:45:57;0.22;;;0.10;;
55031;SDS011;40928;51.076;7.950;2023-08-06T08:48:24;0.45;;;0.10;;
55031;SDS011;40928;51.076;7.950;2023-08-06T08:50:52;0.77;;;0.15;;
55031;SDS011;40928;51.076;7.950;2023-08-06T08:53:25;0.47;;;0.20;;
55031;SDS011;40928;51.076;7.950;2023-08-06T08:55:52;0.32;;;0.20;;
55031;SDS011;40928;51.076;7.950;2023-08-06T08:58:24;2.22;;;0.20;;
55031;SDS011;40928;51.076;7.950;2023-08-06T09:00:52;0.10;;;0.10;;
55031;SDS011;40928;51.076;7.950;2023-08-06T09:03:21;0.22;;;0.00;;
55031;SDS011;40928;51.076;7.950;2023-08-06T09:05:48;0.47;;;0.10;;
55031;SDS011;40928;51.076;7.950;2023-08-06T09:08:17;0.00;;;0.00;;
55031;SDS011;40928;51.076;7.950;2023-08-06T09:10:48;0.20;;;0.03;;
55031;SDS011;40928;51.076;7.950;2023-08-06T09:13:17;0.80;;;0.10;;
55031;SDS011;40928;51.076;7.950;2023-08-06T09:15:46;0.63;;;0.10;;
55031;SDS011;40928;51.076;7.950;2023-08-06T09:18:12;0.65;;;0.10;;
55031;SDS011;40928;51.076;7.950;2023-08-06T09:20:38;0.43;;;0.10;;
55031;SDS011;40928;51.076;7.950;2023-08-06T09:23:10;0.40;;;0.05;;
55031;SDS011;40928;51.076;7.950;2023-08-06T09:25:37;0.10;;;0.10;;
55031;SDS011;40928;51.076;7.950;2023-08-06T09:28:05;0.10;;;0.10;;
55031;SDS011;40928;51.076;7.950;2023-08-06T09:30:35;0.25;;;0.10;;
55031;SDS011;40928;51.076;7.950;2023-08-06T09:33:08;0.20;;;0.10;;
55031;SDS011;40928;51.076;7.950;2023-08-06T09:35:39;0.45;;;0.10;;
55031;SDS011;40928;51.076;7.950;2023-08-06T09:38:13;0.13;;;0.10;;
55031;SDS011;40928;51.076;7.950;2023-08-06T09:40:42;0.13;;;0.10;;
55031;SDS011;40928;51.076;7.950;2023-08-06T09:43:07;0.20;;;0.10;;
55031;SDS011;40928;51.076;7.950;2023-08-06T09:45:37;0.20;;;0.13;;
55031;SDS011;40928;51.076;7.950;2023-08-06T09:48:04;0.10;;;0.10;;
55031;SDS011;40928;51.076;7.950;2023-08-06T09:50:34;0.20;;;0.10;;
55031;SDS011;40928;51.076;7.950;2023-08-06T09:53:04;0.20;;;0.00;;
55031;SDS011;40928;51.076;7.950;2023-08-06T09:55:31;0.00;;;0.00;;
55031;SDS011;40928;51.076;7.950;2023-08-06T09:57:58;0.38;;;0.10;;
55031;SDS011;40928;51.076;7.950;2023-08-06T10:00:27;0.35;;;0.10;;
55031;SDS011;40928;51.076;7.950;2023-08-06T10:03:00;0.43;;;0.10;;
55031;SDS011;40928;51.076;7.950;2023-08-06T10:05:26;0.55;;;0.03;;
55031;SDS011;40928;51.076;7.950;2023-08-06T10:07:52;0.10;;;0.10;;
55031;SDS011;40928;51.076;7.950;2023-08-06T10:10:18;0.30;;;0.10;;
55031;SDS011;40928;51.076;7.950;2023-08-06T10:12:51;1.25;;;0.20;;
55031;SDS011;40928;51.076;7.950;2023-08-06T10:15:21;0.38;;;0.20;;
55031;SDS011;40928;51.076;7.950;2023-08-06T10:17:51;0.40;;;0.25;;
55031;SDS011;40928;51.076;7.950;2023-08-06T10:20:18;1.13;;;0.30;;
55031;SDS011;40928;51.076;7.950;2023-08-06T10:22:46;0.77;;;0.15;;
55031;SDS011;40928;51.076;7.950;2023-08-06T10:25:25;3.72;;;0.47;;
55031;SDS011;40928;51.076;7.950;2023-08-06T10:30:23;1.60;;;0.20;;
55031;SDS011;40928;51.076;7.950;2023-08-06T10:32:59;0.68;;;0.28;;
55031;SDS011;40928;51.076;7.950;2023-08-06T10:38:04;0.43;;;0.20;;
55031;SDS011;40928;51.076;7.950;2023-08-06T10:40:31;0.32;;;0.30;;
55031;SDS011;40928;51.076;7.950;2023-08-06T10:42:58;0.70;;;0.35;;
55031;SDS011;40928;51.076;7.950;2023-08-06T10:45:25;4.55;;;0.43;;
55031;SDS011;40928;51.076;7.950;2023-08-06T10:47:53;0.45;;;0.40;;
55031;SDS011;40928;51.076;7.950;2023-08-06T10:50:21;0.60;;;0.50;;
55031;SDS011;40928;51.076;7.950;2023-08-06T10:52:47;0.65;;;0.28;;
55031;SDS011;40928;51.076;7.950;2023-08-06T10:55:13;0.40;;;0.30;;
55031;SDS011;40928;51.076;7.950;2023-08-06T10:57:40;0.20;;;0.20;;
55031;SDS011;40928;51.076;7.950;2023-08-06T11:00:06;0.52;;;0.30;;
55031;SDS011;40928;51.076;7.950;2023-08-06T11:02:36;0.85;;;0.10;;
55031;SDS011;40928;51.076;7.950;2023-08-06T11:05:05;0.50;;;0.40;;
55031;SDS011;40928;51.076;7.950;2023-08-06T11:07:34;0.70;;;0.45;;
55031;SDS011;40928;51.076;7.950;2023-08-06T11:10:07;0.70;;;0.20;;
55031;SDS011;40928;51.076;7.950;2023-08-06T11:12:34;1.45;;;0.30;;
55031;SDS011;40928;51.076;7.950;2023-08-06T11:17:47;0.43;;;0.40;;
55031;SDS011;40928;51.076;7.950;2023-08-06T11:20:14;0.85;;;0.17;;
55031;SDS011;40928;51.076;7.950;2023-08-06T11:22:42;0.40;;;0.20;;
55031;SDS011;40928;51.076;7.950;2023-08-06T11:25:13;0.13;;;0.10;;
55031;SDS011;40928;51.076;7.950;2023-08-06T11:27:40;0.22;;;0.20;;
55031;SDS011;40928;51.076;7.950;2023-08-06T11:30:06;0.65;;;0.10;;
55031;SDS011;40928;51.076;7.950;2023-08-06T11:32:32;0.17;;;0.13;;
55031;SDS011;40928;51.076;7.950;2023-08-06T11:35:08;0.60;;;0.15;;
55031;SDS011;40928;51.076;7.950;2023-08-06T11:37:35;0.77;;;0.10;;
55031;SDS011;40928;51.076;7.950;2023-08-06T11:40:02;0.45;;;0.10;;
55031;SDS011;40928;51.076;7.950;2023-08-06T11:42:39;0.05;;;0.05;;
55031;SDS011;40928;51.076;7.950;2023-08-06T11:45:05;1.15;;;0.10;;
55031;SDS011;40928;51.076;7.950;2023-08-06T11:48:13;0.30;;;0.10;;
55031;SDS011;40928;51.076;7.950;2023-08-06T11:50:25;0.80;;;0.52;;
55031;SDS011;40928;51.076;7.950;2023-08-06T11:52:56;0.70;;;0.43;;
55031;SDS011;40928;51.076;7.950;2023-08-06T11:55:23;1.40;;;0.50;;
55031;SDS011;40928;51.076;7.950;2023-08-06T11:57:50;0.30;;;0.20;;
55031;SDS011;40928;51.076;7.950;2023-08-06T12:00:16;0.73;;;0.40;;
55031;SDS011;40928;51.076;7.950;2023-08-06T12:02:50;0.47;;;0.22;;
55031;SDS011;40928;51.076;7.950;2023-08-06T12:05:23;2.05;;;0.20;;
55031;SDS011;40928;51.076;7.950;2023-08-06T12:07:57;0.40;;;0.20;;
55031;SDS011;40928;51.076;7.950;2023-08-06T12:10:26;0.13;;;0.10;;
55031;SDS011;40928;51.076;7.950;2023-08-06T12:12:56;0.28;;;0.10;;
55031;SDS011;40928;51.076;7.950;2023-08-06T12:15:24;0.65;;;0.10;;
55031;SDS011;40928;51.076;7.950;2023-08-06T12:17:50;1.02;;;0.20;;
55031;SDS011;40928;51.076;7.950;2023-08-06T12:20:18;0.20;;;0.20;;
55031;SDS011;40928;51.076;7.950;2023-08-06T12:22:47;0.60;;;0.30;;
55031;SDS011;40928;51.076;7.950;2023-08-06T12:25:18;0.93;;;0.30;;
55031;SDS011;40928;51.076;7.950;2023-08-06T12:27:45;1.35;;;0.55;;
55031;SDS011;40928;51.076;7.950;2023-08-06T12:30:12;0.75;;;0.40;;
55031;SDS011;40928;51.076;7.950;2023-08-06T12:32:45;0.40;;;0.20;;
55031;SDS011;40928;51.076;7.950;2023-08-06T12:35:13;0.73;;;0.20;;
55031;SDS011;40928;51.076;7.950;2023-08-06T12:37:39;0.63;;;0.30;;
55031;SDS011;40928;51.076;7.950;2023-08-06T12:40:05;1.85;;;0.40;;
55031;SDS011;40928;51.076;7.950;2023-08-06T12:42:31;0.85;;;0.43;;
55031;SDS011;40928;51.076;7.950;2023-08-06T12:44:57;0.40;;;0.40;;
55031;SDS011;40928;51.076;7.950;2023-08-06T12:47:23;0.70;;;0.40;;
55031;SDS011;40928;51.076;7.950;2023-08-06T12:49:51;0.95;;;0.43;;
55031;SDS011;40928;51.076;7.950;2023-08-06T12:52:20;0.30;;;0.30;;
55031;SDS011;40928;51.076;7.950;2023-08-06T12:54:50;1.15;;;0.32;;
55031;SDS011;40928;51.076;7.950;2023-08-06T12:57:16;0.60;;;0.30;;
55031;SDS011;40928;51.076;7.950;2023-08-06T12:59:42;0.60;;;0.32;;
55031;SDS011;40928;51.076;7.950;2023-08-06T13:02:07;4.15;;;0.28;;
55031;SDS011;40928;51.076;7.950;2023-08-06T13:04:34;0.63;;;0.22;;
55031;SDS011;40928;51.076;7.950;2023-08-06T13:07:00;0.85;;;0.50;;
55031;SDS011;40928;51.076;7.950;2023-08-06T13:09:32;0.10;;;0.10;;
55031;SDS011;40928;51.076;7.950;2023-08-06T13:12:01;1.85;;;0.10;;
55031;SDS011;40928;51.076;7.950;2023-08-06T13:14:30;0.82;;;0.28;;
55031;SDS011;40928;51.076;7.950;2023-08-06T13:16:56;0.10;;;0.10;;
55031;SDS011;40928;51.076;7.950;2023-08-06T13:19:25;0.20;;;0.20;;
55031;SDS011;40928;51.076;7.950;2023-08-06T13:21:58;0.15;;;0.10;;
55031;SDS011;40928;51.076;7.950;2023-08-06T13:24:29;0.65;;;0.20;;
55031;SDS011;40928;51.076;7.950;2023-08-06T13:26:55;0.30;;;0.17;;
55031;SDS011;40928;51.076;7.950;2023-08-06T13:29:24;1.27;;;0.20;;
55031;SDS011;40928;51.076;7.950;2023-08-06T13:31:53;0.20;;;0.10;;
55031;SDS011;40928;51.076;7.950;2023-08-06T13:34:19;0.85;;;0.10;;
55031;SDS011;40928;51.076;7.950;2023-08-06T13:37:00;0.05;;;0.05;;
55031;SDS011;40928;51.076;7.950;2023-08-06T13:39:28;0.20;;;0.10;;
55031;SDS011;40928;51.076;7.950;2023-08-06T13:41:59;0.00;;;0.00;;
55031;SDS011;40928;51.076;7.950;2023-08-06T13:44:31;1.97;;;0.57;;
55031;SDS011;40928;51.076;7.950;2023-08-06T13:47:04;0.10;;;0.10;;
55031;SDS011;40928;51.076;7.950;2023-08-06T13:49:33;0.10;;;0.10;;
55031;SDS011;40928;51.076;7.950;2023-08-06T13:51:58;0.40;;;0.10;;
55031;SDS011;40928;51.076;7.950;2023-08-06T13:54:24;0.80;;;0.20;;
55031;SDS011;40928;51.076;7.950;2023-08-06T13:56:49;0.28;;;0.13;;
55031;SDS011;40928;51.076;7.950;2023-08-06T13:59:37;0.28;;;0.10;;
55031;SDS011;40928;51.076;7.950;2023-08-06T14:02:09;0.20;;;0.10;;
55031;SDS011;40928;51.076;7.950;2023-08-06T14:04:39;0.10;;;0.00;;
55031;SDS011;40928;51.076;7.950;2023-08-06T14:07:09;0.40;;;0.10;;
55031;SDS011;40928;51.076;7.950;2023-08-06T14:09:35;0.10;;;0.10;;
55031;SDS011;40928;51.076;7.950;2023-08-06T14:12:02;0.17;;;0.10;;
55031;SDS011;40928;51.076;7.950;2023-08-06T14:14:31;0.95;;;0.20;;
55031;SDS011;40928;51.076;7.950;2023-08-06T14:16:56;0.25;;;0.10;;
55031;SDS011;40928;51.076;7.950;2023-08-06T14:19:22;0.40;;;0.20;;
55031;SDS011;40928;51.076;7.950;2023-08-06T14:21:47;0.20;;;0.20;;
55031;SDS011;40928;51.076;7.950;2023-08-06T14:24:14;0.88;;;0.20;;
55031;SDS011;40928;51.076;7.950;2023-08-06T14:26:40;0.93;;;0.17;;
55031;SDS011;40928;51.076;7.950;2023-08-06T14:29:06;0.25;;;0.20;;
55031;SDS011;40928;51.076;7.950;2023-08-06T14:31:31;0.52;;;0.20;;
55031;SDS011;40928;51.076;7.950;2023-08-06T14:34:00;0.20;;;0.20;;
55031;SDS011;40928;51.076;7.950;2023-08-06T14:36:29;0.40;;;0.22;;
55031;SDS011;40928;51.076;7.950;2023-08-06T14:38:55;0.70;;;0.30;;
55031;SDS011;40928;51.076;7.950;2023-08-06T14:41:21;0.28;;;0.10;;
55031;SDS011;40928;51.076;7.950;2023-08-06T14:43:47;0.40;;;0.20;;
55031;SDS011;40928;51.076;7.950;2023-08-06T14:46:15;0.38;;;0.38;;
55031;SDS011;40928;51.076;7.950;2023-08-06T14:51:10;0.25;;;0.20;;
55031;SDS011;40928;51.076;7.950;2023-08-06T14:53:38;0.85;;;0.30;;
55031;SDS011;40928;51.076;7.950;2023-08-06T14:56:08;0.22;;;0.20;;
55031;SDS011;40928;51.076;7.950;2023-08-06T14:58:36;1.13;;;0.30;;
55031;SDS011;40928;51.076;7.950;2023-08-06T15:01:10;0.80;;;0.30;;
55031;SDS011;40928;51.076;7.950;2023-08-06T15:03:42;0.50;;;0.35;;
55031;SDS011;40928;51.076;7.950;2023-08-06T15:06:10;0.30;;;0.30;;
55031;SDS011;40928;51.076;7.950;2023-08-06T15:08:37;0.63;;;0.38;;